Time;durP1;ratioP1;P1;durP2;ratioP2;P2;SDS_P1;SDS_P2;PMS_P1;PMS_P2;Temp;Humidity;BMP_temperature;BMP_pressure;BME280_temperature;BME280_humidity;BME280_pressure;Samples;Min_cycle;Max_cycle;Signal;HPM_P1;HPM_P2
2021/07/09 00:01:18;;;;;;;11.43;7.63;;;18.50;99.90;;;;;;5091038;28;20057;-71
2021/07/09 00:03:45;;;;;;;8.23;5.47;;;18.50;99.90;;;;;;5091729;28;20063;-71
2021/07/09 00:06:13;;;;;;;5.93;3.10;;;18.50;99.90;;;;;;5096291;28;20090;-71
2021/07/09 00:08:40;;;;;;;4.60;3.00;;;18.40;99.90;;;;;;5099121;28;20071;-72
2021/07/09 00:11:07;;;;;;;8.65;3.65;;;18.40;99.90;;;;;;5078211;28;20079;-70
2021/07/09 00:13:34;;;;;;;6.30;3.47;;;18.30;99.90;;;;;;5090805;28;20091;-70
2021/07/09 00:16:01;;;;;;;6.45;3.22;;;18.30;99.90;;;;;;5091810;28;20548;-70
2021/07/09 00:18:28;;;;;;;6.43;3.38;;;18.20;99.90;;;;;;5089420;28;20412;-71
2021/07/09 00:20:55;;;;;;;7.28;3.30;;;18.20;99.90;;;;;;5097054;28;20087;-70
2021/07/09 00:23:22;;;;;;;5.95;3.45;;;18.10;99.90;;;;;;5071757;28;20131;-70
2021/07/09 00:25:49;;;;;;;6.47;3.97;;;18.10;99.90;;;;;;5093303;28;20074;-70
2021/07/09 00:28:15;;;;;;;6.22;3.42;;;18.10;99.90;;;;;;5073898;28;20043;-71
2021/07/09 00:30:42;;;;;;;6.70;3.70;;;18.00;99.90;;;;;;5103031;28;20504;-70
2021/07/09 00:33:09;;;;;;;5.45;3.20;;;18.00;99.90;;;;;;5101425;28;20479;-71
2021/07/09 00:35:35;;;;;;;5.82;3.30;;;17.90;99.90;;;;;;5096053;28;20458;-70
2021/07/09 00:38:02;;;;;;;6.03;3.53;;;17.90;99.90;;;;;;5086094;28;20076;-70
2021/07/09 00:40:29;;;;;;;6.00;3.40;;;17.90;99.90;;;;;;5087331;28;20040;-70
2021/07/09 00:42:56;;;;;;;762.08;204.25;;;17.80;99.90;;;;;;5092632;28;20126;-70
2021/07/09 00:45:23;;;;;;;763.25;203.98;;;17.80;99.90;;;;;;5090583;28;20044;-71
2021/07/09 00:47:50;;;;;;;492.40;139.23;;;17.70;99.90;;;;;;5090273;28;20071;-71
2021/07/09 00:50:18;;;;;;;90.93;58.80;;;17.70;99.90;;;;;;5104473;28;20497;-70
2021/07/09 00:52:45;;;;;;;262.35;99.25;;;17.70;99.90;;;;;;5070121;28;20072;-70
2021/07/09 00:55:13;;;;;;;165.80;78.35;;;17.60;99.90;;;;;;5072832;28;20076;-70
2021/07/09 00:57:48;;;;;;;10.23;6.07;;;17.60;99.90;;;;;;5088344;28;20083;-71
2021/07/09 01:00:18;;;;;;;8.13;4.88;;;17.50;99.90;;;;;;5096941;28;20079;-71
2021/07/09 01:02:45;;;;;;;164.73;78.80;;;17.50;99.90;;;;;;5090491;28;20535;-70
2021/07/09 01:05:13;;;;;;;5.05;3.20;;;17.50;99.90;;;;;;5090693;28;20079;-71
2021/07/09 01:07:40;;;;;;;;;;;17.40;99.90;;;;;;5093907;28;20487;-71
2021/07/09 01:10:12;;;;;;;6.00;3.33;;;17.40;99.90;;;;;;5099504;28;19973;-70
2021/07/09 01:12:39;;;;;;;4.22;2.83;;;17.40;99.90;;;;;;5098718;28;20530;-71
2021/07/09 01:15:09;;;;;;;6.63;3.72;;;17.40;99.90;;;;;;5080950;28;20420;-72
2021/07/09 01:17:37;;;;;;;108.40;57.58;;;17.30;99.90;;;;;;5074936;28;20136;-70
2021/07/09 01:20:08;;;;;;;;;;;17.30;99.90;;;;;;5083716;28;20048;-71
2021/07/09 01:22:37;;;;;;;253.02;96.50;;;17.20;99.90;;;;;;5091120;28;19927;-70
2021/07/09 01:25:09;;;;;;;147.45;74.20;;;17.20;99.90;;;;;;5083611;28;20485;-70
2021/07/09 01:27:38;;;;;;;78.70;52.92;;;17.10;99.90;;;;;;5090145;28;20078;-71
2021/07/09 01:30:08;;;;;;;22.30;15.80;;;17.10;99.90;;;;;;5088703;28;20098;-70
2021/07/09 01:32:35;;;;;;;9.80;6.30;;;17.10;99.90;;;;;;5090168;28;20089;-70
2021/07/09 01:35:03;;;;;;;266.42;98.53;;;17.00;99.90;;;;;;5088557;28;20137;-70
2021/07/09 01:37:30;;;;;;;;;;;17.00;99.90;;;;;;5087025;28;20047;-70
2021/07/09 01:39:57;;;;;;;13.05;8.63;;;16.90;99.90;;;;;;5076165;28;19920;-71
2021/07/09 01:42:24;;;;;;;110.63;62.55;;;16.90;99.90;;;;;;5064790;28;20518;-71
2021/07/09 01:44:50;;;;;;;52.05;36.17;;;16.80;99.90;;;;;;5101226;28;20104;-70
2021/07/09 01:47:18;;;;;;;537.80;151.18;;;16.80;99.90;;;;;;5094242;28;20854;-71
2021/07/09 01:49:52;;;;;;;505.52;144.73;;;16.80;99.90;;;;;;5060125;28;20128;-70
2021/07/09 01:52:20;;;;;;;535.05;148.43;;;16.70;99.90;;;;;;5091169;28;20085;-70
2021/07/09 01:54:47;;;;;;;164.77;68.13;;;16.70;99.90;;;;;;5085066;28;20070;-71
2021/07/09 01:57:13;;;;;;;7.07;4.28;;;16.60;99.90;;;;;;5092048;28;20043;-70
2021/07/09 01:59:41;;;;;;;7.03;4.18;;;16.60;99.90;;;;;;5070392;28;20472;-71
2021/07/09 02:02:08;;;;;;;360.60;114.77;;;16.50;99.90;;;;;;5089287;28;20183;-70
2021/07/09 02:04:46;;;;;;;88.28;55.47;;;16.40;99.90;;;;;;5097299;28;20400;-71
2021/07/09 02:07:13;;;;;;;;;;;16.40;99.90;;;;;;5086377;28;20075;-70
2021/07/09 02:09:42;;;;;;;7.10;3.50;;;16.30;99.90;;;;;;5084619;28;20020;-70
2021/07/09 02:12:09;;;;;;;22.83;13.05;;;16.40;99.90;;;;;;5074862;28;20084;-71
2021/07/09 02:14:36;;;;;;;7.17;3.43;;;16.40;99.90;;;;;;5077408;28;20130;-71
2021/07/09 02:17:12;;;;;;;5.75;3.42;;;16.40;99.90;;;;;;5063928;28;20075;-71
2021/07/09 02:19:40;;;;;;;25.75;17.85;;;16.40;99.90;;;;;;5097877;28;20048;-71
2021/07/09 02:22:09;;;;;;;;;;;16.40;99.90;;;;;;5073229;28;20069;-70
2021/07/09 02:24:43;;;;;;;65.28;39.75;;;16.30;99.90;;;;;;5098410;28;19966;-71
2021/07/09 02:27:10;;;;;;;51.03;31.33;;;16.30;99.90;;;;;;5098311;28;20075;-70
2021/07/09 02:29:38;;;;;;;4.70;2.07;;;16.30;99.90;;;;;;5099261;28;20131;-71
2021/07/09 02:32:08;;;;;;;4.22;1.83;;;16.30;99.90;;;;;;5094084;28;20297;-70
2021/07/09 02:34:36;;;;;;;5.03;3.20;;;16.30;99.90;;;;;;5090484;28;20067;-70
2021/07/09 02:37:04;;;;;;;3.67;2.20;;;16.20;99.90;;;;;;5094738;28;20097;-70
2021/07/09 02:39:31;;;;;;;3.38;2.08;;;16.20;99.90;;;;;;5088701;28;20048;-72
2021/07/09 02:41:58;;;;;;;4.70;2.58;;;16.20;99.90;;;;;;5098620;28;20086;-72
2021/07/09 02:44:26;;;;;;;3.90;2.30;;;16.10;99.90;;;;;;5086525;28;20076;-71
2021/07/09 02:46:53;;;;;;;6.40;3.47;;;16.10;99.90;;;;;;5073476;28;20087;-70
2021/07/09 02:49:21;;;;;;;6.78;3.60;;;16.10;99.90;;;;;;5097135;28;20044;-71
2021/07/09 02:51:49;;;;;;;5.78;3.25;;;16.10;99.90;;;;;;5095360;28;20046;-71
2021/07/09 02:54:16;;;;;;;11.73;7.20;;;16.10;99.90;;;;;;5097421;28;20101;-71
2021/07/09 02:56:43;;;;;;;5.70;3.30;;;16.10;99.90;;;;;;5093400;28;20302;-70
2021/07/09 02:59:11;;;;;;;5.97;3.60;;;16.00;99.90;;;;;;5101618;28;20550;-70
2021/07/09 03:01:41;;;;;;;;;;;16.00;99.90;;;;;;5078547;28;20040;-71
2021/07/09 03:04:09;;;;;;;9.70;5.22;;;15.90;99.90;;;;;;5093184;28;20010;-70
2021/07/09 03:06:36;;;;;;;367.98;115.03;;;15.90;99.90;;;;;;5069396;28;20056;-71
2021/07/09 03:09:05;;;;;;;11.40;7.45;;;15.90;99.90;;;;;;5091746;28;20102;-70
2021/07/09 03:11:32;;;;;;;48.78;33.85;;;15.80;99.90;;;;;;5094701;28;20099;-70
2021/07/09 03:14:00;;;;;;;33.50;19.20;;;15.80;99.90;;;;;;5096744;28;20506;-70
2021/07/09 03:16:27;;;;;;;14.43;7.32;;;15.80;99.90;;;;;;5091530;28;20151;-70
2021/07/09 03:18:54;;;;;;;6.72;4.28;;;15.80;99.90;;;;;;5094074;28;20049;-70
2021/07/09 03:21:21;;;;;;;12.27;6.38;;;15.70;99.90;;;;;;5093203;28;20098;-71
2021/07/09 03:23:48;;;;;;;6.95;3.65;;;15.70;99.90;;;;;;5100364;28;20127;-71
2021/07/09 03:26:15;;;;;;;6.03;3.85;;;15.70;99.90;;;;;;5092543;28;20040;-70
2021/07/09 03:28:41;;;;;;;11.40;8.52;;;15.70;99.90;;;;;;5105885;28;20035;-70
2021/07/09 03:31:08;;;;;;;7.20;4.28;;;15.70;99.90;;;;;;5094072;28;20074;-71
2021/07/09 03:33:35;;;;;;;12.25;7.25;;;15.60;99.90;;;;;;5091772;28;20069;-70
2021/07/09 03:36:04;;;;;;;210.45;84.70;;;15.60;99.90;;;;;;5073788;28;20926;-70
2021/07/09 03:38:31;;;;;;;21.15;14.68;;;15.60;99.90;;;;;;5081183;28;20165;-70
2021/07/09 03:40:58;;;;;;;10.32;6.00;;;15.60;99.90;;;;;;5092695;28;20079;-70
2021/07/09 03:43:24;;;;;;;23.98;13.63;;;15.60;99.90;;;;;;5094220;28;20090;-71
2021/07/09 03:45:51;;;;;;;640.30;168.13;;;15.60;99.90;;;;;;5093391;28;20080;-70
2021/07/09 03:48:18;;;;;;;466.58;133.27;;;15.60;99.90;;;;;;5091438;28;20071;-71
2021/07/09 03:50:45;;;;;;;324.27;110.15;;;15.60;99.90;;;;;;5096791;28;20079;-71
2021/07/09 03:53:11;;;;;;;31.92;15.23;;;15.50;99.90;;;;;;5086722;28;20474;-71
2021/07/09 03:55:38;;;;;;;7.72;4.03;;;15.50;99.90;;;;;;5093042;28;20501;-70
2021/07/09 03:58:05;;;;;;;7.20;4.22;;;15.50;99.90;;;;;;5077109;28;20098;-70
2021/07/09 04:00:31;;;;;;;7.80;4.80;;;15.50;99.90;;;;;;5100343;28;22121;-70
2021/07/09 04:02:58;;;;;;;8.85;4.30;;;15.50;99.90;;;;;;5083482;28;20471;-70
2021/07/09 04:05:25;;;;;;;11.90;7.85;;;15.40;99.90;;;;;;5093305;28;20131;-70
2021/07/09 04:07:52;;;;;;;11.50;5.95;;;15.40;99.90;;;;;;5100726;28;20106;-70
2021/07/09 04:10:20;;;;;;;12.93;9.10;;;15.40;99.90;;;;;;5102419;28;20129;-70
2021/07/09 04:12:47;;;;;;;10.63;6.57;;;15.40;99.90;;;;;;5095601;28;20075;-70
2021/07/09 04:15:14;;;;;;;10.93;6.55;;;15.40;99.90;;;;;;5087751;28;20101;-70
2021/07/09 04:17:41;;;;;;;10.43;6.30;;;15.40;99.90;;;;;;5081997;28;20148;-70
2021/07/09 04:20:08;;;;;;;24.33;20.10;;;15.40;99.90;;;;;;5094522;28;20078;-71
2021/07/09 04:22:35;;;;;;;13.27;10.18;;;15.40;99.90;;;;;;5065309;28;20082;-70
2021/07/09 04:25:04;;;;;;;15.77;7.93;;;15.50;99.90;;;;;;5092984;28;20482;-70
2021/07/09 04:27:31;;;;;;;15.00;12.43;;;15.50;99.90;;;;;;5087271;28;20529;-70
2021/07/09 04:29:58;;;;;;;11.43;7.47;;;15.50;99.90;;;;;;5099773;28;20075;-70
2021/07/09 04:32:25;;;;;;;11.75;6.95;;;15.60;99.90;;;;;;5090296;28;20075;-70
2021/07/09 04:34:52;;;;;;;13.73;9.07;;;15.60;99.90;;;;;;5106886;28;20079;-71
2021/07/09 04:37:19;;;;;;;159.10;76.63;;;15.70;99.90;;;;;;5098329;28;20471;-71
2021/07/09 04:39:46;;;;;;;536.90;145.88;;;15.70;99.90;;;;;;5086636;28;20075;-71
2021/07/09 04:42:13;;;;;;;109.60;64.47;;;15.80;99.90;;;;;;5085032;28;20071;-71
2021/07/09 04:44:40;;;;;;;157.93;73.95;;;15.80;99.90;;;;;;5094573;28;20090;-70
2021/07/09 04:47:07;;;;;;;55.40;41.25;;;15.90;99.90;;;;;;5086394;28;20096;-70
2021/07/09 04:49:34;;;;;;;135.73;71.63;;;15.90;99.90;;;;;;5080475;28;20479;-70
2021/07/09 04:52:01;;;;;;;368.90;120.03;;;16.00;99.90;;;;;;5096178;28;20072;-70
2021/07/09 04:54:28;;;;;;;499.85;142.65;;;16.00;99.90;;;;;;5096863;28;20040;-70
2021/07/09 04:56:55;;;;;;;321.25;110.30;;;16.10;99.90;;;;;;5089606;28;20048;-70
2021/07/09 04:59:22;;;;;;;400.27;124.47;;;16.10;99.90;;;;;;5092436;28;20040;-70
2021/07/09 05:01:49;;;;;;;472.93;138.87;;;16.20;99.90;;;;;;5088860;28;20060;-70
2021/07/09 05:04:16;;;;;;;209.88;88.55;;;16.20;99.90;;;;;;5092611;28;20051;-70
2021/07/09 05:06:43;;;;;;;288.63;104.70;;;16.20;99.90;;;;;;5069675;28;20037;-70
2021/07/09 05:09:10;;;;;;;422.08;128.50;;;16.30;99.90;;;;;;5099120;28;20489;-70
2021/07/09 05:11:38;;;;;;;420.55;127.38;;;16.30;99.90;;;;;;5080435;28;20098;-70
2021/07/09 05:14:07;;;;;;;512.90;146.43;;;16.40;99.90;;;;;;5077347;28;21292;-70
2021/07/09 05:16:34;;;;;;;173.88;80.57;;;16.40;99.90;;;;;;5074032;28;20066;-70
2021/07/09 05:19:02;;;;;;;276.38;101.75;;;16.50;99.90;;;;;;5078698;28;20041;-70
2021/07/09 05:21:29;;;;;;;385.77;121.25;;;16.60;99.90;;;;;;5098235;28;20056;-70
2021/07/09 05:23:56;;;;;;;564.67;156.63;;;16.60;99.90;;;;;;5093842;28;20476;-70
2021/07/09 05:26:24;;;;;;;758.17;224.60;;;16.70;99.90;;;;;;5086720;28;20055;-71
2021/07/09 05:28:51;;;;;;;588.55;178.85;;;16.80;99.90;;;;;;5087371;28;20120;-70
2021/07/09 05:31:18;;;;;;;600.33;182.10;;;16.80;99.90;;;;;;5091387;28;20055;-70
2021/07/09 05:33:45;;;;;;;738.50;225.80;;;16.90;99.90;;;;;;5093178;28;20041;-70
2021/07/09 05:36:12;;;;;;;936.97;283.33;;;16.90;99.90;;;;;;5059002;28;20515;-70
2021/07/09 05:38:39;;;;;;;730.90;215.60;;;16.90;99.90;;;;;;5065946;28;20106;-70
2021/07/09 05:41:08;;;;;;;540.50;155.15;;;16.90;99.90;;;;;;5073480;28;20039;-70
2021/07/09 05:43:35;;;;;;;393.75;126.03;;;17.00;99.90;;;;;;5089408;28;20225;-70
2021/07/09 05:46:02;;;;;;;34.67;17.13;;;17.10;99.90;;;;;;5084627;28;20082;-70
2021/07/09 05:48:28;;;;;;;68.40;41.25;;;17.10;99.90;;;;;;5086341;28;20150;-71
2021/07/09 05:50:55;;;;;;;176.45;83.70;;;17.20;99.90;;;;;;5094314;28;20086;-70
2021/07/09 05:53:22;;;;;;;35.58;22.45;;;17.20;99.90;;;;;;5086273;28;20520;-70
2021/07/09 05:55:49;;;;;;;23.63;13.73;;;17.30;99.90;;;;;;5099076;28;20176;-72
2021/07/09 05:58:15;;;;;;;23.30;12.38;;;17.30;99.90;;;;;;5090457;28;20484;-71
2021/07/09 06:00:42;;;;;;;25.10;14.43;;;17.30;99.90;;;;;;5096194;28;20106;-70
2021/07/09 06:03:09;;;;;;;32.65;19.30;;;17.40;99.90;;;;;;5072984;28;20920;-70
2021/07/09 06:05:36;;;;;;;57.28;34.97;;;17.40;99.90;;;;;;5097570;28;20055;-70
2021/07/09 06:08:04;;;;;;;80.25;50.55;;;17.40;99.90;;;;;;5074714;28;20083;-70
2021/07/09 06:10:32;;;;;;;110.47;65.95;;;17.50;99.90;;;;;;5099103;28;20416;-70
2021/07/09 06:12:59;;;;;;;;;;;17.50;99.90;;;;;;5097932;28;20115;-70
2021/07/09 06:15:26;;;;;;;203.32;89.00;;;17.60;99.90;;;;;;5087099;28;19943;-71
2021/07/09 06:18:13;;;;;;;339.45;118.53;;;17.60;99.90;;;;;;5098722;28;20050;-70
2021/07/09 06:20:39;;;;;;;642.40;189.57;;;17.70;99.90;;;;;;5090002;28;20044;-70
2021/07/09 06:23:06;;;;;;;700.42;206.82;;;17.70;99.90;;;;;;5089851;28;20791;-70
2021/07/09 06:25:33;;;;;;;599.47;176.93;;;17.80;99.90;;;;;;5090751;28;20543;-70
2021/07/09 06:28:00;;;;;;;285.27;108.90;;;17.90;99.90;;;;;;5089986;28;20044;-71
2021/07/09 06:30:26;;;;;;;102.18;62.30;;;17.90;99.90;;;;;;5101741;28;20083;-70
2021/07/09 06:32:53;;;;;;;187.75;86.93;;;18.00;99.90;;;;;;5084441;28;20132;-70
2021/07/09 06:35:20;;;;;;;203.18;91.70;;;18.00;99.90;;;;;;5106612;28;20080;-70
2021/07/09 06:37:46;;;;;;;160.80;81.93;;;18.00;99.90;;;;;;5085870;28;20076;-70
2021/07/09 06:40:14;;;;;;;210.32;92.90;;;18.10;99.90;;;;;;5081273;28;20121;-70
2021/07/09 06:42:41;;;;;;;278.75;108.05;;;18.20;99.90;;;;;;5092844;28;20090;-70
2021/07/09 06:45:08;;;;;;;339.52;120.43;;;18.30;99.90;;;;;;5071769;28;20134;-70
2021/07/09 06:47:35;;;;;;;465.65;144.38;;;18.30;99.90;;;;;;5091596;28;20084;-70
2021/07/09 06:50:02;;;;;;;597.72;182.85;;;18.30;99.90;;;;;;5107893;28;20039;-70
2021/07/09 06:52:29;;;;;;;720.90;224.52;;;18.40;99.90;;;;;;5105791;28;20075;-70
2021/07/09 06:54:56;;;;;;;760.38;220.38;;;18.40;99.90;;;;;;5073988;28;20048;-70
2021/07/09 06:57:22;;;;;;;13.75;7.63;;;18.50;99.90;;;;;;5083230;28;20095;-71
2021/07/09 06:59:49;;;;;;;18.50;8.43;;;18.50;99.90;;;;;;5099358;28;20048;-71
2021/07/09 07:02:16;;;;;;;17.30;9.38;;;18.60;99.90;;;;;;5088599;28;20149;-71
2021/07/09 07:04:43;;;;;;;14.85;7.72;;;18.70;99.90;;;;;;5097770;28;20476;-70
2021/07/09 07:07:10;;;;;;;13.63;7.97;;;18.70;99.90;;;;;;5088252;28;20075;-71
2021/07/09 07:09:38;;;;;;;14.25;7.95;;;18.80;99.90;;;;;;5100669;28;20115;-70
2021/07/09 07:12:08;;;;;;;15.52;9.13;;;18.80;99.90;;;;;;5076247;28;20129;-71
2021/07/09 07:14:35;;;;;;;14.30;8.38;;;18.80;99.90;;;;;;5101310;28;20447;-70
2021/07/09 07:17:03;;;;;;;14.80;7.78;;;18.80;99.90;;;;;;5085193;28;20124;-71
2021/07/09 07:19:30;;;;;;;15.38;8.73;;;18.80;99.90;;;;;;5083771;28;20047;-71
2021/07/09 07:22:01;;;;;;;15.20;7.95;;;18.90;99.90;;;;;;5082444;28;20105;-71
2021/07/09 07:24:31;;;;;;;15.18;7.85;;;18.90;99.90;;;;;;5087310;28;20045;-71
2021/07/09 07:26:58;;;;;;;13.30;7.90;;;18.90;99.90;;;;;;5070483;28;20545;-72
2021/07/09 07:29:25;;;;;;;14.82;7.00;;;18.90;99.90;;;;;;5095353;28;20047;-71
2021/07/09 07:31:52;;;;;;;13.50;7.23;;;18.90;99.90;;;;;;5093822;28;20135;-71
2021/07/09 07:34:19;;;;;;;16.33;9.50;;;19.00;99.90;;;;;;5088380;28;20618;-71
2021/07/09 07:36:47;;;;;;;13.27;8.25;;;19.00;99.90;;;;;;5081940;28;20119;-73
2021/07/09 07:39:14;;;;;;;19.08;9.32;;;19.00;99.90;;;;;;5077895;28;20083;-71
2021/07/09 07:41:41;;;;;;;20.17;10.47;;;19.10;99.90;;;;;;5096885;28;20105;-71
2021/07/09 07:44:08;;;;;;;14.30;9.57;;;19.10;99.90;;;;;;5076910;28;20170;-71
2021/07/09 07:46:35;;;;;;;17.15;9.93;;;19.10;99.90;;;;;;5090904;28;20075;-70
2021/07/09 07:49:02;;;;;;;16.55;9.73;;;19.20;99.90;;;;;;5103401;28;20429;-70
2021/07/09 07:51:30;;;;;;;17.27;10.35;;;19.20;99.90;;;;;;5090873;28;20076;-70
2021/07/09 07:53:56;;;;;;;15.63;9.87;;;19.30;99.90;;;;;;5097383;28;20101;-71
2021/07/09 07:56:23;;;;;;;15.88;8.65;;;19.30;99.90;;;;;;5088351;28;20333;-71
2021/07/09 07:58:52;;;;;;;19.08;11.30;;;19.30;99.90;;;;;;5097869;28;20124;-71
2021/07/09 08:01:19;;;;;;;19.80;10.27;;;19.40;99.90;;;;;;5088510;28;20894;-72
2021/07/09 08:03:46;;;;;;;17.20;10.27;;;19.40;99.90;;;;;;5096258;28;20101;-71
2021/07/09 08:06:13;;;;;;;21.90;13.10;;;19.40;99.90;;;;;;5085672;28;20131;-70
2021/07/09 08:08:40;;;;;;;23.88;14.43;;;19.40;99.90;;;;;;5099850;28;20083;-71
2021/07/09 08:11:07;;;;;;;28.38;19.40;;;19.40;99.90;;;;;;5097589;28;20090;-70
2021/07/09 08:13:34;;;;;;;27.17;18.67;;;19.50;99.90;;;;;;5104183;28;20104;-71
2021/07/09 08:16:01;;;;;;;32.22;22.45;;;19.50;99.90;;;;;;5077666;28;20043;-70
2021/07/09 08:18:28;;;;;;;31.13;20.73;;;19.50;99.90;;;;;;5095621;28;20051;-70
2021/07/09 08:20:55;;;;;;;26.52;17.42;;;19.50;99.90;;;;;;5087797;28;20097;-70
2021/07/09 08:23:26;;;;;;;24.17;18.63;;;19.50;99.90;;;;;;5078156;28;20563;-70
2021/07/09 08:25:52;;;;;;;34.03;20.83;;;19.50;99.90;;;;;;5095519;28;20093;-70
2021/07/09 08:28:20;;;;;;;36.63;25.65;;;19.50;99.90;;;;;;5101991;28;20309;-71
2021/07/09 08:30:47;;;;;;;93.90;62.83;;;19.40;99.90;;;;;;5087410;28;20072;-70
2021/07/09 08:33:14;;;;;;;86.00;60.92;;;19.40;99.90;;;;;;5086500;28;20052;-70
2021/07/09 08:35:42;;;;;;;186.05;91.00;;;19.40;99.90;;;;;;5094911;28;20040;-69
2021/07/09 08:38:08;;;;;;;289.45;111.88;;;19.30;99.90;;;;;;5086105;28;20068;-70
2021/07/09 08:40:36;;;;;;;607.53;191.20;;;19.30;99.90;;;;;;5076572;28;20080;-70
2021/07/09 08:43:23;;;;;;;915.83;311.27;;;19.30;99.90;;;;;;5092196;28;20047;-70
2021/07/09 08:45:50;;;;;;;1077.70;360.75;;;19.30;99.90;;;;;;5073444;28;20075;-70
2021/07/09 08:48:19;;;;;;;1386.70;502.83;;;19.40;99.90;;;;;;5080076;28;20079;-70
2021/07/09 08:50:46;;;;;;;1575.90;585.22;;;19.40;99.90;;;;;;5091112;28;20131;-70
2021/07/09 08:53:13;;;;;;;1561.55;581.90;;;19.50;99.90;;;;;;5089190;28;20067;-69
2021/07/09 08:55:40;;;;;;;1928.70;811.33;;;19.60;99.90;;;;;;5093671;28;20529;-70
2021/07/09 08:58:07;;;;;;;1688.82;640.70;;;19.60;99.90;;;;;;5074372;28;20075;-70
2021/07/09 09:00:45;;;;;;;1397.55;522.75;;;19.70;99.90;;;;;;5102558;28;20079;-70
2021/07/09 09:03:14;;;;;;;1493.15;556.38;;;19.70;99.90;;;;;;5082426;28;20113;-71
2021/07/09 09:05:41;;;;;;;1700.10;656.88;;;19.70;99.90;;;;;;5096355;28;20403;-70
2021/07/09 09:08:09;;;;;;;1626.87;640.83;;;19.70;99.90;;;;;;5095068;28;20140;-70
2021/07/09 09:10:42;;;;;;;1966.03;999.90;;;19.70;99.90;;;;;;5091780;28;20301;-70
2021/07/09 09:13:12;;;;;;;1999.90;999.90;;;19.80;99.90;;;;;;5094528;28;20083;-70
2021/07/09 09:15:41;;;;;;;1902.95;999.33;;;19.80;99.90;;;;;;5081346;28;20047;-70
2021/07/09 09:18:32;;;;;;;1999.90;999.90;;;19.90;99.90;;;;;;5094473;28;20150;-71
2021/07/09 09:21:04;;;;;;;1502.57;472.63;;;19.90;99.90;;;;;;5080148;28;20044;-71
2021/07/09 09:23:32;;;;;;;963.95;331.67;;;20.00;99.90;;;;;;5098362;28;20044;-70
2021/07/09 09:25:59;;;;;;;913.47;254.85;;;20.00;99.90;;;;;;5093461;28;20051;-71
2021/07/09 09:28:26;;;;;;;443.15;66.68;;;20.10;99.90;;;;;;5076481;28;20097;-70
2021/07/09 09:30:55;;;;;;;382.10;46.42;;;20.10;99.90;;;;;;5085503;28;20146;-70
2021/07/09 09:33:30;;;;;;;1336.88;580.47;;;20.10;99.90;;;;;;5075507;28;20079;-70
2021/07/09 09:35:57;;;;;;;1892.28;998.92;;;20.20;99.90;;;;;;5092195;28;20135;-70
2021/07/09 09:38:29;;;;;;;1361.05;252.73;;;20.20;99.90;;;;;;5071965;28;20125;-71
2021/07/09 09:40:58;;;;;;;1449.65;263.70;;;20.20;99.90;;;;;;5092637;28;20083;-70
2021/07/09 09:43:27;;;;;;;559.97;94.68;;;20.20;99.90;;;;;;5094788;28;20074;-70
2021/07/09 09:46:09;;;;;;;551.53;86.13;;;20.30;99.90;;;;;;5069602;28;20131;-70
2021/07/09 09:48:38;;;;;;;547.67;82.70;;;20.20;99.90;;;;;;5061850;28;20086;-70
2021/07/09 09:51:22;;;;;;;551.70;84.20;;;20.20;99.90;;;;;;5089845;28;20071;-70
2021/07/09 09:54:03;;;;;;;529.33;72.57;;;20.20;99.90;;;;;;5069567;28;20039;-71
2021/07/09 09:56:46;;;;;;;522.65;74.07;;;20.20;99.90;;;;;;5089655;28;20468;-70
2021/07/09 09:59:24;;;;;;;518.63;73.72;;;20.20;99.90;;;;;;5080836;28;20039;-71
2021/07/09 10:01:52;;;;;;;503.17;65.63;;;20.20;99.90;;;;;;5092436;28;20043;-70
2021/07/09 10:04:20;;;;;;;485.80;62.35;;;20.20;99.90;;;;;;5080149;28;20047;-71
2021/07/09 10:06:47;;;;;;;;;;;20.30;99.90;;;;;;5094410;28;20079;-71
2021/07/09 10:09:15;;;;;;;492.80;61.10;;;20.30;99.90;;;;;;5102020;28;19919;-71
2021/07/09 10:11:43;;;;;;;487.55;61.63;;;20.30;99.90;;;;;;5091222;28;20333;-70
2021/07/09 10:14:15;;;;;;;474.73;56.28;;;20.40;99.90;;;;;;5094988;28;20086;-71
2021/07/09 10:16:44;;;;;;;469.55;56.25;;;20.40;99.90;;;;;;5082181;28;20068;-70
2021/07/09 10:19:23;;;;;;;446.05;49.72;;;20.50;99.90;;;;;;5088331;28;20395;-71
2021/07/09 10:21:50;;;;;;;445.83;52.88;;;20.60;99.90;;;;;;5092482;28;20075;-71
2021/07/09 10:24:18;;;;;;;444.95;52.15;;;20.60;99.90;;;;;;5091197;28;20044;-71
2021/07/09 10:26:49;;;;;;;424.23;50.03;;;20.70;99.90;;;;;;5093750;28;20143;-71
2021/07/09 10:29:19;;;;;;;426.00;49.05;;;20.70;99.90;;;;;;5097104;28;20464;-71
2021/07/09 10:31:48;;;;;;;406.52;50.53;;;20.80;99.90;;;;;;5091824;28;20068;-71
2021/07/09 10:34:32;;;;;;;392.08;46.78;;;20.90;99.90;;;;;;5103161;28;20163;-71
2021/07/09 10:37:01;;;;;;;391.90;47.85;;;20.90;99.90;;;;;;5072828;28;20075;-71
2021/07/09 10:39:42;;;;;;;387.77;47.25;;;20.90;99.90;;;;;;5073494;28;20076;-71
2021/07/09 10:42:38;;;;;;;372.13;48.15;;;21.00;99.90;;;;;;5062556;28;20055;-71
2021/07/09 10:45:07;;;;;;;359.63;47.85;;;21.00;99.90;;;;;;5091682;28;20071;-70
2021/07/09 10:47:51;;;;;;;343.58;47.10;;;21.10;99.90;;;;;;5082681;28;20075;-70
2021/07/09 10:50:40;;;;;;;335.05;47.17;;;21.10;99.90;;;;;;5087517;28;20063;-71
2021/07/09 10:53:10;;;;;;;322.98;50.65;;;21.10;99.90;;;;;;5096765;28;20067;-71
2021/07/09 10:55:46;;;;;;;312.38;47.17;;;21.20;99.90;;;;;;5096853;28;20075;-71
2021/07/09 10:58:17;;;;;;;301.67;46.60;;;21.30;99.90;;;;;;5068175;28;20074;-71
2021/07/09 11:00:55;;;;;;;296.85;47.38;;;21.30;99.90;;;;;;5095832;28;20098;-71
2021/07/09 11:03:36;;;;;;;289.55;48.00;;;21.30;99.90;;;;;;5068760;28;20399;-70
2021/07/09 11:06:04;;;;;;;280.42;46.28;;;21.40;99.90;;;;;;5084551;28;20043;-71
2021/07/09 11:08:45;;;;;;;274.48;46.13;;;21.40;99.90;;;;;;5101675;28;20120;-70
2021/07/09 11:11:33;;;;;;;268.80;48.25;;;21.40;99.90;;;;;;5087728;28;20064;-70
2021/07/09 11:14:07;;;;;;;261.80;46.28;;;21.50;99.90;;;;;;5087345;28;20170;-70
2021/07/09 11:16:48;;;;;;;258.00;47.50;;;21.50;99.90;;;;;;5075796;28;20048;-71
2021/07/09 11:19:27;;;;;;;251.00;47.45;;;21.50;99.90;;;;;;5078121;28;20052;-71
2021/07/09 11:22:08;;;;;;;244.68;47.05;;;21.50;99.90;;;;;;5096462;28;20051;-70
2021/07/09 11:24:56;;;;;;;244.45;46.63;;;21.50;99.90;;;;;;5098502;28;20102;-72
2021/07/09 11:27:27;;;;;;;225.65;43.50;;;21.50;99.90;;;;;;5089465;28;20063;-70
2021/07/09 11:30:01;;;;;;;153.85;37.75;;;21.50;99.90;;;;;;5093538;28;20097;-71
2021/07/09 11:32:33;;;;;;;257.85;47.10;;;21.60;99.90;;;;;;5095392;28;20066;-71
2021/07/09 11:35:00;;;;;;;264.08;45.78;;;21.60;99.90;;;;;;5074367;28;20044;-71
2021/07/09 11:37:32;;;;;;;252.27;45.67;;;21.70;99.90;;;;;;5077651;28;20044;-71
2021/07/09 11:40:08;;;;;;;250.48;46.83;;;21.70;99.90;;;;;;5085983;28;20071;-70
2021/07/09 11:42:37;;;;;;;;;;;21.70;99.90;;;;;;5093186;28;20059;-71
2021/07/09 11:45:05;;;;;;;;;;;21.70;99.90;;;;;;5098344;28;20512;-70
2021/07/09 11:47:37;;;;;;;115.90;24.10;;;21.80;99.90;;;;;;5091312;28;20468;-70
2021/07/09 11:50:04;;;;;;;;;;;21.80;99.90;;;;;;5092884;28;20468;-70
2021/07/09 11:52:32;;;;;;;;;;;21.90;99.90;;;;;;5092214;28;19992;-71
2021/07/09 11:55:00;;;;;;;;;;;21.90;99.90;;;;;;5093469;28;20447;-70
2021/07/09 11:57:28;;;;;;;;;;;21.90;99.90;;;;;;5079418;28;20372;-70
2021/07/09 12:00:07;;;;;;;;;;;21.90;99.90;;;;;;5092484;28;20431;-71
2021/07/09 12:02:34;;;;;;;;;;;21.90;99.90;;;;;;5084058;28;20369;-71
2021/07/09 12:05:04;;;;;;;;;;;21.90;99.90;;;;;;5098617;28;20358;-70
2021/07/09 12:07:32;;;;;;;;;;;21.90;99.90;;;;;;5101761;28;20503;-70
2021/07/09 12:10:08;;;;;;;;;;;21.90;99.90;;;;;;5069338;28;20355;-73
2021/07/09 12:12:38;;;;;;;;;;;22.00;99.90;;;;;;5080869;28;20534;-71
2021/07/09 12:15:26;;;;;;;;;;;22.00;99.90;;;;;;5067464;28;20960;-71
2021/07/09 12:17:56;;;;;;;;;;;22.00;99.90;;;;;;5095161;28;20474;-71
2021/07/09 12:20:23;;;;;;;;;;;22.00;99.90;;;;;;5093222;28;19982;-71
2021/07/09 12:22:57;;;;;;;;;;;22.10;99.90;;;;;;5075244;28;20537;-71
2021/07/09 12:25:25;;;;;;;;;;;22.10;99.90;;;;;;5096884;28;20461;-71
2021/07/09 12:27:58;;;;;;;;;;;22.20;99.90;;;;;;5097636;28;20300;-71
2021/07/09 12:30:28;;;;;;;174.90;35.90;;;22.10;99.90;;;;;;5104895;28;20737;-70
2021/07/09 12:32:58;;;;;;;;;;;22.10;99.90;;;;;;5084346;28;20451;-70
2021/07/09 12:35:40;;;;;;;;;;;22.10;99.90;;;;;;5061850;28;20478;-70
2021/07/09 12:38:10;;;;;;;;;;;22.10;99.90;;;;;;5076935;28;20411;-71
2021/07/09 12:40:47;;;;;;;164.80;32.90;;;22.10;99.90;;;;;;5091819;28;20513;-71
2021/07/09 12:43:46;;;;;;;110.70;24.75;;;22.10;99.90;;;;;;5096946;28;20044;-70